Mandurah, Australia
Current Conditions -  °F | °C
As of 10:00 AM on Tuesday 21 Oct 2014 (Local Time) from YPJT Reporting Station
Broken Clouds Broken Clouds  
Wind Chill: 66°   Ceiling: 3000
Heat Index: 66°   Visibility: 6mi
Dew Point: 50°   Wind: 7mph
Humidity: 56%   Direction: 170°S
Pressure: 30.18"   Gusts: NA
Location:  32.53°S, 115.73°E
Report Text: YPJT 210200Z AUTO 17006KT 130V240 9999 // BKN030 19/10 Q1022
Loading
Personal Weather Stations






























Interactive Weather Map
Tropical Storm Tracking
New forecast layout! Learn more

10-Day Weather Forecast

Advertisements
Track Severe Weather on mobile